Time;durP1;ratioP1;P1;durP2;ratioP2;P2;SDS_P1;SDS_P2;PMS_P1;PMS_P2;Temp;Humidity;BMP_temperature;BMP_pressure;BME280_temperature;BME280_humidity;BME280_pressure;Samples;Min_cycle;Max_cycle;Signal;HPM_P1;HPM_P2
2023/10/14 00:01:24;;;;;;;8.27;5.35;;;;;;;20.47;49.23;94996.66;4945116;28;20190;-82
2023/10/14 00:03:50;;;;;;;10.60;5.70;;;;;;;20.42;49.59;94992.03;4941769;29;20301;-81
2023/10/14 00:06:18;;;;;;;8.90;5.15;;;;;;;20.44;49.36;94984.75;4929835;29;20626;-81
2023/10/14 00:08:59;;;;;;;7.05;5.45;;;;;;;20.46;49.42;94993.22;4933404;29;20565;-83
2023/10/14 00:11:52;;;;;;;7.63;5.22;;;;;;;20.67;49.22;94999.03;4942974;28;20342;-81
2023/10/14 00:14:15;;;;;;;13.02;5.45;;;;;;;20.51;49.17;94995.22;4944671;29;20626;-82
2023/10/14 00:16:42;;;;;;;7.80;5.15;;;;;;;20.52;49.44;95005.53;4928180;29;20247;-82
2023/10/14 00:19:09;;;;;;;8.40;5.30;;;;;;;20.40;49.80;94994.06;4921301;29;20189;-81
2023/10/14 00:21:35;;;;;;;10.02;5.43;;;;;;;20.37;50.52;94994.53;4942234;28;20748;-81
2023/10/14 00:24:06;;;;;;;6.90;5.25;;;;;;;20.47;50.17;94986.91;4939896;29;20216;-81
2023/10/14 00:26:32;;;;;;;8.45;5.15;;;;;;;20.38;50.91;94980.31;4935031;29;20209;-82
2023/10/14 00:29:19;;;;;;;9.20;5.47;;;;;;;20.31;51.30;94979.56;4941298;29;20266;-80
2023/10/14 00:31:44;;;;;;;7.80;5.38;;;;;;;20.15;51.56;94988.09;4942924;29;20189;-81
2023/10/14 00:34:09;;;;;;;9.30;5.68;;;;;;;20.25;51.98;94980.47;4920836;29;20186;-81
2023/10/14 00:36:34;;;;;;;11.07;6.32;;;;;;;20.22;51.97;94967.72;4942203;29;20221;-81
2023/10/14 00:39:12;;;;;;;8.63;5.90;;;;;;;20.04;52.35;94974.63;4943804;29;20224;-81
2023/10/14 00:41:38;;;;;;;8.10;5.65;;;;;;;20.26;51.91;94961.81;4942614;29;20272;-80
2023/10/14 00:44:03;;;;;;;7.55;5.35;;;;;;;20.22;51.75;94968.53;4919128;29;20213;-82
2023/10/14 00:46:31;;;;;;;11.05;6.00;;;;;;;20.30;52.20;94972.69;4942787;29;20224;-81
2023/10/14 00:49:02;;;;;;;7.32;5.75;;;;;;;20.27;51.74;94957.34;4941521;29;20293;-81
2023/10/14 00:51:30;;;;;;;6.90;5.75;;;;;;;20.08;52.48;94960.00;4935669;29;20192;-82
2023/10/14 00:54:01;;;;;;;9.82;5.97;;;;;;;20.25;51.97;94954.94;4922160;29;20218;-79
2023/10/14 00:56:30;;;;;;;8.10;5.32;;;;;;;20.40;51.76;94951.88;4939086;29;20200;-82
2023/10/14 00:59:02;;;;;;;7.43;5.57;;;;;;;20.19;52.47;94949.72;4939665;29;20197;-82
2023/10/14 01:01:31;;;;;;;8.18;5.38;;;;;;;20.25;52.47;94946.22;4926791;29;20213;-82
2023/10/14 01:06:54;;;;;;;8.48;6.07;;;;;;;20.27;52.31;94938.88;4943014;29;20220;-81
2023/10/14 01:09:19;;;;;;;8.82;5.63;;;;;;;20.11;53.15;94952.66;4936266;29;20293;-81
2023/10/14 01:11:45;;;;;;;6.35;5.55;;;;;;;20.11;53.45;94955.28;4941673;29;20608;-81
2023/10/14 01:14:14;;;;;;;8.20;5.90;;;;;;;20.08;53.71;94941.53;4943264;29;20173;-81
2023/10/14 01:16:41;;;;;;;8.15;5.60;;;;;;;19.79;54.49;94944.91;4943833;28;20236;-79
2023/10/14 01:19:10;;;;;;;10.02;5.78;;;;;;;19.91;54.29;94948.44;4921169;29;20253;-80
2023/10/14 01:21:39;;;;;;;8.95;5.72;;;;;;;19.95;54.02;94954.84;4941916;29;20193;-78
2023/10/14 01:24:15;;;;;;;6.47;5.55;;;;;;;19.97;53.91;94936.22;4939885;29;20216;-80
2023/10/14 01:26:51;;;;;;;9.52;6.07;;;;;;;19.83;54.13;94943.44;4943884;29;20201;-81
2023/10/14 01:29:21;;;;;;;7.97;5.28;;;;;;;19.65;55.09;94948.72;4940922;29;20210;-80
2023/10/14 01:32:10;;;;;;;9.90;5.40;;;;;;;19.49;55.49;94944.78;4942577;29;20273;-81
2023/10/14 01:34:42;;;;;;;8.55;5.80;;;;;;;19.58;55.13;94951.41;4935901;29;20181;-80
2023/10/14 01:37:18;;;;;;;9.05;5.28;;;;;;;19.78;54.53;94945.91;4947682;29;20205;-81
2023/10/14 01:39:48;;;;;;;7.05;5.80;;;;;;;19.74;54.68;94953.47;4931670;29;20193;-79
2023/10/14 01:42:14;;;;;;;7.40;5.85;;;;;;;19.66;55.04;94945.03;4943047;29;20213;-81
2023/10/14 01:44:41;;;;;;;9.80;6.07;;;;;;;19.82;54.57;94944.47;4937359;29;20193;-80
2023/10/14 01:47:07;;;;;;;8.43;5.85;;;;;;;19.65;54.97;94938.16;4934247;29;21153;-79
2023/10/14 01:49:35;;;;;;;9.35;6.50;;;;;;;19.57;55.01;94957.69;4930462;29;20204;-80
2023/10/14 01:52:00;;;;;;;9.95;6.28;;;;;;;19.89;54.29;94942.56;4945086;28;20190;-79
2023/10/14 01:54:25;;;;;;;9.57;6.28;;;;;;;19.99;53.98;94948.13;4935693;29;20687;-81
2023/10/14 01:56:51;;;;;;;9.65;6.78;;;;;;;19.89;54.49;94939.94;4938457;29;20588;-79
2023/10/14 01:59:22;;;;;;;8.70;6.15;;;;;;;19.87;54.45;94935.91;4939215;28;20194;-80
2023/10/14 02:01:48;;;;;;;12.63;6.47;;;;;;;19.82;54.41;94933.94;4944423;29;20189;-81
2023/10/14 02:04:15;;;;;;;12.45;6.68;;;;;;;20.00;54.05;94935.75;4951275;29;20213;-80
2023/10/14 02:06:44;;;;;;;10.05;6.28;;;;;;;20.04;54.16;94921.09;4963636;29;20208;-80
2023/10/14 02:09:10;;;;;;;10.25;6.88;;;;;;;20.04;54.10;94927.19;4957642;29;20218;-80
2023/10/14 02:11:36;;;;;;;13.05;6.63;;;;;;;20.02;53.99;94923.97;4944277;28;20202;-80
2023/10/14 02:14:06;;;;;;;9.30;6.55;;;;;;;20.23;53.61;94927.16;4960829;29;20539;-82
2023/10/14 02:16:41;;;;;;;11.63;6.30;;;;;;;19.89;54.84;94913.59;4949616;29;20202;-82
2023/10/14 02:19:36;;;;;;;9.60;6.43;;;;;;;20.08;54.32;94914.38;4927616;29;20190;-80
2023/10/14 02:22:03;;;;;;;12.20;6.50;;;;;;;19.88;55.31;94912.00;4942042;29;20537;-82
2023/10/14 02:24:28;;;;;;;11.00;6.10;;;;;;;20.02;55.02;94902.88;4936225;29;20181;-81
2023/10/14 02:26:56;;;;;;;7.32;5.95;;;;;;;20.06;55.40;94906.69;4940522;29;20216;-81
2023/10/14 02:29:24;;;;;;;9.60;6.25;;;;;;;19.97;55.46;94894.06;4962057;28;20190;-81
2023/10/14 02:31:49;;;;;;;9.30;6.47;;;;;;;19.92;55.86;94892.06;4941115;29;20190;-81
2023/10/14 02:34:15;;;;;;;9.40;6.60;;;;;;;19.86;56.02;94892.94;4940279;29;20196;-82
2023/10/14 02:36:48;;;;;;;9.23;6.50;;;;;;;19.92;56.45;94886.78;4944892;29;20713;-81
2023/10/14 02:39:16;;;;;;;8.52;6.50;;;;;;;19.87;56.50;94883.19;4946375;29;20185;-82
2023/10/14 02:41:58;;;;;;;8.27;6.88;;;;;;;19.87;56.58;94884.00;4929788;29;20547;-82
2023/10/14 02:44:28;;;;;;;13.30;6.75;;;;;;;19.51;57.72;94884.78;4918040;29;20249;-82
2023/10/14 02:46:54;;;;;;;10.98;6.55;;;;;;;19.76;57.50;94890.03;4946600;28;20205;-82
2023/10/14 02:49:24;;;;;;;13.35;7.68;;;;;;;19.76;57.34;94882.13;4934851;29;20681;-83
2023/10/14 02:51:51;;;;;;;13.55;6.90;;;;;;;19.79;57.24;94884.34;4946042;28;20186;-81
2023/10/14 02:54:33;;;;;;;9.10;6.43;;;;;;;19.62;57.55;94880.69;4939938;29;20181;-79
2023/10/14 02:57:00;;;;;;;10.82;6.70;;;;;;;19.67;57.55;94883.44;4939360;29;20292;-80
2023/10/14 03:10:18;;;;;;;12.18;6.88;;;;;;;19.66;57.14;94879.19;4922574;29;20567;-80
2023/10/14 03:12:48;;;;;;;13.20;6.60;;;;;;;19.97;55.80;94880.88;4923916;29;20182;-81
2023/10/14 03:15:22;;;;;;;15.27;7.22;;;;;;;19.64;57.24;94881.25;4922281;29;20194;-81
2023/10/14 03:17:56;;;;;;;10.20;6.63;;;;;;;19.87;56.60;94893.75;4918091;29;20210;-81
2023/10/14 03:22:58;;;;;;;12.55;6.80;;;;;;;19.92;55.07;94881.53;4907797;29;20226;-81
2023/10/14 03:25:24;;;;;;;11.10;6.57;;;;;;;19.80;54.99;94878.84;4905379;29;20191;-81
2023/10/14 03:27:50;;;;;;;14.65;6.50;;;;;;;19.88;54.90;94872.47;4921253;29;20305;-81
2023/10/14 03:30:17;;;;;;;11.40;5.70;;;;;;;20.05;54.18;94860.28;4917552;29;20193;-80
2023/10/14 03:32:42;;;;;;;10.80;6.60;;;;;;;20.10;54.08;94862.25;4919311;29;20550;-81
2023/10/14 03:35:20;;;;;;;10.60;6.70;;;;;;;20.14;53.93;94849.41;4874983;29;20230;-80
2023/10/14 03:37:52;;;;;;;12.68;6.20;;;;;;;20.03;53.74;94857.03;4898031;29;20720;-79
2023/10/14 03:43:08;;;;;;;10.77;6.43;;;;;;;20.17;53.26;94881.41;4907861;29;20236;-79
2023/10/14 03:45:45;;;;;;;14.32;6.38;;;;;;;20.07;57.79;94873.25;4915005;29;20194;-80
2023/10/14 03:48:13;;;;;;;11.45;6.15;;;;;;;19.93;59.95;94909.47;4925555;29;20735;-81
2023/10/14 03:50:39;;;;;;;15.00;6.93;;;;;;;19.25;65.96;94922.72;4933200;29;20569;-81
2023/10/14 03:53:05;;;;;;;13.77;6.45;;;;;;;19.04;69.33;94931.81;4924661;29;20189;-79
2023/10/14 03:55:31;;;;;;;6.68;4.78;;;;;;;18.13;72.85;94932.16;4934352;29;20193;-80
2023/10/14 03:58:03;;;;;;;6.65;3.90;;;;;;;17.69;77.22;94927.63;4920073;28;20216;-78
2023/10/14 04:00:38;;;;;;;7.35;3.30;;;;;;;17.46;78.88;94935.94;4931733;29;20197;-81
2023/10/14 04:03:11;;;;;;;5.25;2.90;;;;;;;17.22;81.50;94922.44;4939848;29;20276;-82
2023/10/14 04:05:38;;;;;;;9.00;3.30;;;;;;;17.32;81.13;94923.88;4945211;29;20185;-83
2023/10/14 04:08:05;;;;;;;4.90;3.03;;;;;;;17.07;82.68;94931.56;4924707;29;20214;-82
2023/10/14 04:10:35;;;;;;;6.45;3.55;;;;;;;17.12;83.15;94939.59;4947634;28;20232;-81
2023/10/14 04:13:04;;;;;;;7.05;3.55;;;;;;;16.78;85.04;94922.25;4933183;29;20185;-79
2023/10/14 04:15:45;;;;;;;5.43;3.28;;;;;;;16.81;85.03;94925.28;4929784;29;20245;-81
2023/10/14 04:18:12;;;;;;;6.28;3.28;;;;;;;16.81;84.99;94937.59;4939615;29;20192;-81
2023/10/14 04:20:38;;;;;;;6.72;3.05;;;;;;;16.94;84.49;94934.97;4935151;29;20190;-80
2023/10/14 04:23:05;;;;;;;5.78;3.38;;;;;;;16.97;84.64;94931.97;4933305;29;20224;-82
2023/10/14 04:25:43;;;;;;;5.25;3.65;;;;;;;16.96;84.58;94938.19;4932640;29;20209;-80
2023/10/14 04:28:19;;;;;;;9.45;4.55;;;;;;;16.74;84.36;94939.41;4925975;29;20193;-80
2023/10/14 04:30:44;;;;;;;6.85;4.28;;;;;;;16.85;84.17;94942.22;4935027;29;20209;-81
2023/10/14 04:33:19;;;;;;;6.97;5.03;;;;;;;16.64;84.19;94945.00;4939934;29;20181;-82
2023/10/14 04:36:22;;;;;;;14.13;5.85;;;;;;;16.88;83.19;94946.28;4939103;28;20189;-81
2023/10/14 04:38:44;;;;;;;8.13;5.47;;;;;;;16.80;82.83;94954.34;4943749;29;20240;-81
2023/10/14 04:41:13;;;;;;;6.03;5.35;;;;;;;16.76;82.28;94956.53;4927667;29;20189;-81
2023/10/14 04:46:21;;;;;;;7.88;5.32;;;;;;;16.96;79.77;94967.88;4935553;29;20349;-79
2023/10/14 04:48:59;;;;;;;9.70;5.60;;;;;;;17.11;79.91;94974.72;4942706;29;20242;-79
2023/10/14 04:51:30;;;;;;;7.68;4.95;;;;;;;17.03;80.05;94970.47;4943105;29;20216;-79
2023/10/14 04:54:00;;;;;;;14.15;5.78;;;;;;;16.86;79.73;94956.94;4936269;29;20181;-81
2023/10/14 04:56:29;;;;;;;10.98;5.55;;;;;;;17.17;79.30;94961.63;4934152;29;20213;-79
2023/10/14 04:58:55;;;;;;;10.75;4.53;;;;;;;17.05;79.00;94980.75;4936967;29;20563;-79
2023/10/14 05:01:24;;;;;;;6.70;5.40;;;;;;;16.83;79.09;94967.84;4939830;29;20181;-78
2023/10/14 05:03:55;;;;;;;6.45;4.78;;;;;;;16.84;78.38;94971.28;4931696;29;20237;-79
2023/10/14 05:06:21;;;;;;;8.63;4.50;;;;;;;16.93;78.35;94965.63;4941027;29;20213;-79
2023/10/14 05:08:51;;;;;;;8.52;4.80;;;;;;;16.99;78.09;94966.66;4918251;29;20280;-80
2023/10/14 05:11:27;;;;;;;7.80;4.13;;;;;;;16.86;77.08;94974.50;4937537;29;20213;-79
2023/10/14 05:14:07;;;;;;;5.45;3.47;;;;;;;17.00;76.22;94981.38;4936874;29;20212;-81
2023/10/14 05:16:53;;;;;;;7.10;3.92;;;;;;;17.10;76.50;94994.09;4933150;29;20582;-79
2023/10/14 05:19:29;;;;;;;9.63;4.50;;;;;;;16.82;76.32;94997.69;4941455;29;20304;-79
2023/10/14 05:22:03;;;;;;;6.68;3.45;;;;;;;16.99;76.65;94991.06;4939085;29;20197;-80
2023/10/14 05:24:28;;;;;;;12.30;4.38;;;;;;;17.08;75.97;95002.19;4927941;29;20234;-81
2023/10/14 05:27:00;;;;;;;8.40;4.03;;;;;;;17.02;76.17;94997.72;4936234;29;20312;-81
2023/10/14 05:29:29;;;;;;;6.93;3.55;;;;;;;16.97;75.84;94995.72;4942728;29;20236;-81
2023/10/14 05:32:10;;;;;;;10.63;3.58;;;;;;;17.04;75.41;95002.75;4934668;29;20205;-80
2023/10/14 05:34:35;;;;;;;6.15;3.53;;;;;;;16.84;76.28;95002.75;4924568;29;20345;-81
2023/10/14 05:37:01;;;;;;;4.97;2.80;;;;;;;16.94;75.63;94996.09;4927977;29;20287;-82
2023/10/14 05:39:27;;;;;;;4.63;2.42;;;;;;;17.11;74.67;95008.81;4937744;29;20185;-82
2023/10/14 05:41:58;;;;;;;6.22;3.10;;;;;;;17.06;74.99;95019.94;4938340;29;20208;-80
2023/10/14 05:44:27;;;;;;;5.20;2.47;;;;;;;16.77;75.83;95015.84;4938945;29;20208;-82
2023/10/14 05:46:54;;;;;;;5.95;2.47;;;;;;;16.84;76.10;95014.03;4939343;29;20291;-81
2023/10/14 05:49:24;;;;;;;3.45;3.05;;;;;;;16.79;75.02;95020.91;4932459;29;20202;-79
2023/10/14 05:51:52;;;;;;;7.28;2.70;;;;;;;16.54;76.64;95024.03;4948214;29;20649;-80
2023/10/14 05:54:18;;;;;;;4.47;2.08;;;;;;;16.60;75.75;95019.78;4942548;29;20213;-80
2023/10/14 05:56:44;;;;;;;4.82;2.40;;;;;;;16.66;75.87;95025.06;4937163;29;20605;-78
2023/10/14 05:59:10;;;;;;;4.15;2.10;;;;;;;16.90;75.46;95042.09;4944374;29;20220;-79
2023/10/14 06:01:36;;;;;;;4.80;1.92;;;;;;;16.88;74.97;95031.00;4939031;29;20594;-78
2023/10/14 06:04:02;;;;;;;2.95;2.10;;;;;;;16.93;74.73;95039.06;4942998;29;20217;-79
2023/10/14 06:06:27;;;;;;;5.43;2.20;;;;;;;17.04;74.20;95045.53;4952725;28;20224;-79
2023/10/14 06:08:53;;;;;;;5.03;1.88;;;;;;;16.86;74.17;95053.16;4937369;29;20182;-80
2023/10/14 06:11:18;;;;;;;3.58;1.92;;;;;;;17.03;74.29;95058.84;4935527;29;20202;-79
2023/10/14 06:13:43;;;;;;;2.78;1.83;;;;;;;16.97;74.62;95056.03;4935712;29;20651;-80
2023/10/14 06:16:10;;;;;;;4.97;1.90;;;;;;;17.02;73.74;95062.50;4947685;28;20201;-78
2023/10/14 06:18:37;;;;;;;3.03;1.70;;;;;;;17.17;73.71;95071.81;4941847;28;20237;-80
2023/10/14 06:21:05;;;;;;;5.85;2.55;;;;;;;17.24;72.85;95079.69;4933554;29;20553;-77
2023/10/14 06:23:31;;;;;;;2.58;1.80;;;;;;;17.16;73.37;95085.13;4946313;29;20557;-78
2023/10/14 06:25:56;;;;;;;4.10;1.65;;;;;;;16.99;73.38;95095.19;4934654;29;20188;-78
2023/10/14 06:28:22;;;;;;;4.43;1.70;;;;;;;17.23;73.28;95096.44;4943083;29;20181;-80
2023/10/14 06:30:48;;;;;;;4.93;1.83;;;;;;;17.21;73.19;95096.63;4938847;29;20572;-79
2023/10/14 06:33:13;;;;;;;6.38;2.17;;;;;;;17.13;73.14;95102.06;4939858;29;20181;-80
2023/10/14 06:35:44;;;;;;;3.67;2.00;;;;;;;17.08;73.59;95103.69;4941452;29;20217;-79
2023/10/14 06:38:11;;;;;;;4.03;1.73;;;;;;;16.99;73.60;95096.00;4962842;28;20193;-79
2023/10/14 06:40:37;;;;;;;3.70;1.73;;;;;;;17.02;73.44;95105.28;4944941;28;20196;-79
2023/10/14 06:43:06;;;;;;;5.10;1.95;;;;;;;17.03;73.77;95106.06;4926233;29;20214;-80
2023/10/14 06:45:32;;;;;;;4.13;2.45;;;;;;;17.03;73.60;95108.69;4929988;29;20268;-80
2023/10/14 06:47:58;;;;;;;4.72;1.45;;;;;;;17.07;73.21;95102.06;4934615;29;20240;-79
2023/10/14 06:50:24;;;;;;;6.13;1.88;;;;;;;17.23;72.75;95107.75;4944874;28;20193;-79
2023/10/14 06:52:53;;;;;;;4.05;1.90;;;;;;;17.04;73.42;95108.50;4933672;29;20263;-80
2023/10/14 06:55:22;;;;;;;2.55;1.67;;;;;;;17.23;72.70;95122.69;4921019;29;20206;-78
2023/10/14 06:57:51;;;;;;;3.00;1.90;;;;;;;17.19;72.60;95114.38;4935181;29;20228;-79
2023/10/14 07:00:25;;;;;;;6.40;1.65;;;;;;;17.56;71.00;95114.84;4923160;29;20198;-79
2023/10/14 07:02:51;;;;;;;3.83;1.60;;;;;;;17.12;74.33;95116.19;4927320;29;20722;-80
2023/10/14 07:05:19;;;;;;;5.97;1.85;;;;;;;17.25;74.60;95125.91;4939863;29;20186;-80
2023/10/14 07:07:46;;;;;;;7.38;2.30;;;;;;;17.11;76.43;95125.06;4944326;29;20208;-81
2023/10/14 07:10:12;;;;;;;3.28;1.80;;;;;;;17.13;77.07;95130.09;4921273;29;20600;-81
2023/10/14 07:12:37;;;;;;;3.28;1.77;;;;;;;17.31;75.72;95134.78;4942949;29;20174;-82
2023/10/14 07:15:05;;;;;;;3.47;1.83;;;;;;;17.17;76.57;95134.78;4928277;29;20185;-79
2023/10/14 07:17:31;;;;;;;3.25;1.63;;;;;;;17.31;77.58;95137.41;4943700;29;20210;-82
2023/10/14 07:19:56;;;;;;;2.08;1.30;;;;;;;17.51;77.06;95138.28;4931043;29;20241;-80
2023/10/14 07:22:21;;;;;;;3.92;1.48;;;;;;;17.59;77.61;95132.84;4935039;29;20262;-80
2023/10/14 07:24:47;;;;;;;4.25;1.58;;;;;;;17.85;75.72;95137.31;4930627;29;20731;-80
2023/10/14 07:27:13;;;;;;;5.43;1.77;;;;;;;17.95;75.97;95132.47;4927174;29;20220;-80
2023/10/14 07:29:39;;;;;;;4.80;1.70;;;;;;;18.35;74.92;95135.84;4932756;29;20190;-80
2023/10/14 07:32:05;;;;;;;4.72;1.77;;;;;;;18.66;73.42;95140.44;4920397;28;20276;-80
2023/10/14 07:34:30;;;;;;;3.70;1.67;;;;;;;18.65;72.99;95144.09;4951349;28;20214;-81
2023/10/14 07:36:56;;;;;;;3.35;1.98;;;;;;;18.93;71.15;95146.41;4925603;29;20643;-79
2023/10/14 07:39:30;;;;;;;2.13;1.63;;;;;;;18.64;72.48;95146.88;4926798;29;20198;-81
2023/10/14 07:41:56;;;;;;;4.28;1.63;;;;;;;18.43;74.49;95145.31;4945011;29;20185;-81
2023/10/14 07:44:24;;;;;;;2.85;1.70;;;;;;;18.24;74.45;95143.53;4919909;28;20597;-78
2023/10/14 07:46:50;;;;;;;4.65;1.60;;;;;;;18.65;74.47;95154.63;4935145;29;20240;-80
2023/10/14 07:49:15;;;;;;;4.13;1.63;;;;;;;18.36;75.68;95147.97;4928601;29;20683;-80
2023/10/14 07:51:42;;;;;;;7.68;1.90;;;;;;;18.29;75.48;95138.50;4945916;28;20192;-81
2023/10/14 07:54:08;;;;;;;4.70;1.70;;;;;;;18.45;74.23;95143.28;4951473;29;20259;-82
2023/10/14 07:56:33;;;;;;;5.82;1.80;;;;;;;18.26;75.08;95134.44;4948319;29;20249;-80
2023/10/14 07:58:59;;;;;;;2.33;1.70;;;;;;;18.16;76.45;95136.69;4953108;29;20209;-82
2023/10/14 08:01:27;;;;;;;4.63;1.65;;;;;;;18.40;75.87;95143.91;4962368;28;20193;-80
2023/10/14 08:03:56;;;;;;;4.07;1.60;;;;;;;18.45;75.10;95147.75;4928737;29;20213;-80
2023/10/14 08:06:21;;;;;;;4.28;2.03;;;;;;;18.82;73.99;95143.63;4927777;29;20296;-81
2023/10/14 08:08:50;;;;;;;4.20;1.55;;;;;;;18.91;73.72;95140.56;4928490;29;20305;-80
2023/10/14 08:11:16;;;;;;;4.88;1.77;;;;;;;19.00;73.38;95154.28;4933201;29;20186;-82
2023/10/14 08:13:42;;;;;;;5.60;2.15;;;;;;;19.07;74.04;95148.97;4927123;29;20221;-81
2023/10/14 08:16:07;;;;;;;6.15;1.70;;;;;;;18.30;79.43;95148.81;4926790;29;20193;-80
2023/10/14 08:18:34;;;;;;;4.13;1.83;;;;;;;18.68;78.35;95153.38;4925009;29;20324;-79
2023/10/14 08:20:59;;;;;;;6.15;2.22;;;;;;;17.95;77.84;95147.41;4922602;29;20221;-78
2023/10/14 08:23:28;;;;;;;3.30;1.33;;;;;;;17.98;79.03;95133.88;4931643;29;20205;-81
2023/10/14 08:25:59;;;;;;;3.28;1.40;;;;;;;18.38;77.05;95145.97;4929415;29;20194;-79
2023/10/14 08:28:27;;;;;;;3.70;1.17;;;;;;;18.76;74.89;95145.25;4941772;29;20281;-81
2023/10/14 08:30:53;;;;;;;2.42;1.48;;;;;;;19.16;72.66;95156.41;4938064;29;20186;-80
2023/10/14 08:33:24;;;;;;;2.58;1.52;;;;;;;19.31;72.52;95176.41;4928882;29;20202;-79
2023/10/14 08:35:51;;;;;;;4.57;1.40;;;;;;;19.13;74.11;95177.91;4938689;29;20190;-78
2023/10/14 08:38:22;;;;;;;2.78;1.65;;;;;;;18.88;75.03;95198.84;4946564;29;20186;-79
2023/10/14 08:40:51;;;;;;;2.90;0.82;;;;;;;17.14;81.39;95207.81;4958817;29;20189;-81
2023/10/14 08:43:20;;;;;;;1.23;0.45;;;;;;;16.61;84.15;95213.59;4935026;29;20206;-80
2023/10/14 08:45:49;;;;;;;1.50;0.47;;;;;;;16.64;84.49;95212.41;4948375;29;20194;-81
2023/10/14 08:48:15;;;;;;;1.25;0.50;;;;;;;16.58;85.51;95227.06;4959757;28;20228;-81
2023/10/14 08:50:41;;;;;;;0.52;0.52;;;;;;;16.37;85.81;95227.16;4973294;28;20185;-81
2023/10/14 08:53:15;;;;;;;0.70;0.40;;;;;;;16.43;86.45;95248.16;4956785;28;20209;-80
2023/10/14 08:55:44;;;;;;;1.60;0.40;;;;;;;16.06;87.72;95244.03;4960377;28;20197;-80
2023/10/14 08:58:13;;;;;;;0.65;0.30;;;;;;;16.30;86.48;95231.53;4964677;28;20186;-80
2023/10/14 09:00:39;;;;;;;0.20;0.20;;;;;;;16.23;85.64;95228.84;4939698;29;20804;-80
2023/10/14 09:03:09;;;;;;;0.55;0.30;;;;;;;16.49;84.71;95237.91;4934767;29;20287;-80
2023/10/14 09:05:39;;;;;;;0.73;0.73;;;;;;;16.63;84.42;95235.19;4952143;29;20355;-81
2023/10/14 09:08:06;;;;;;;0.60;0.60;;;;;;;16.84;83.51;95238.75;4947735;28;20193;-80
2023/10/14 09:10:33;;;;;;;0.70;0.70;;;;;;;16.52;84.97;95234.88;4946780;28;20193;-80
2023/10/14 09:13:04;;;;;;;0.75;0.50;;;;;;;16.78;82.78;95250.00;4945122;29;20270;-81
2023/10/14 09:15:32;;;;;;;0.50;0.50;;;;;;;16.68;83.88;95253.78;4937151;29;20673;-80
2023/10/14 09:17:58;;;;;;;1.52;0.80;;;;;;;16.34;84.40;95246.69;4949372;29;20193;-81
2023/10/14 09:20:28;;;;;;;1.75;0.60;;;;;;;16.33;84.67;95252.91;4934985;29;20197;-81
2023/10/14 09:23:15;;;;;;;0.88;0.77;;;;;;;16.46;82.36;95261.88;4948524;28;20210;-80
2023/10/14 09:25:49;;;;;;;2.75;1.30;;;;;;;16.01;83.96;95262.13;4944911;28;20275;-80
2023/10/14 09:28:16;;;;;;;5.45;2.35;;;;;;;16.24;83.87;95264.53;4928942;29;20192;-80
2023/10/14 09:30:46;;;;;;;3.75;2.92;;;;;;;16.48;83.69;95262.50;4922930;29;20564;-79
2023/10/14 09:33:15;;;;;;;1.00;0.70;;;;;;;16.42;81.05;95264.88;4933049;29;20816;-80
2023/10/14 09:35:42;;;;;;;1.50;0.60;;;;;;;16.50;80.78;95269.16;4936222;29;20189;-79
2023/10/14 09:38:08;;;;;;;1.05;0.95;;;;;;;16.50;80.04;95269.16;4929835;29;20204;-78
2023/10/14 09:40:35;;;;;;;2.33;1.00;;;;;;;16.37;80.52;95261.22;4937758;29;20177;-78
2023/10/14 09:43:02;;;;;;;7.40;5.70;;;;;;;16.28;79.83;95273.63;4924616;29;20209;-81
2023/10/14 09:45:27;;;;;;;5.75;5.03;;;;;;;16.09;81.02;95267.25;4938126;29;20178;-81
2023/10/14 09:47:57;;;;;;;5.13;4.63;;;;;;;16.12;81.58;95260.81;4940314;29;20280;-80
2023/10/14 09:50:23;;;;;;;4.07;3.05;;;;;;;16.38;81.10;95257.59;4933514;29;20233;-81
2023/10/14 09:52:52;;;;;;;4.10;2.78;;;;;;;16.72;80.78;95256.03;4928331;29;20271;-81
2023/10/14 09:55:20;;;;;;;6.30;5.35;;;;;;;16.85;80.79;95250.84;4916370;29;20190;-80
2023/10/14 09:57:47;;;;;;;1.95;1.60;;;;;;;16.94;79.88;95255.75;4922810;29;20218;-81
2023/10/14 10:00:16;;;;;;;2.55;1.35;;;;;;;16.72;79.88;95256.03;4929953;29;20189;-80
2023/10/14 10:02:45;;;;;;;1.92;1.50;;;;;;;16.84;79.60;95265.78;4928082;29;20214;-81
2023/10/14 10:05:16;;;;;;;2.42;2.00;;;;;;;16.83;79.44;95273.84;4940984;29;20185;-80
2023/10/14 10:08:15;;;;;;;5.13;3.70;;;;;;;16.80;79.46;95264.56;4919494;29;20210;-81
2023/10/14 10:10:43;;;;;;;12.40;9.02;;;;;;;16.78;78.61;95266.53;4919981;29;20185;-82
2023/10/14 10:13:09;;;;;;;2.20;2.00;;;;;;;16.97;78.77;95262.44;4926835;29;20714;-82
2023/10/14 10:15:35;;;;;;;13.55;10.43;;;;;;;16.60;79.32;95259.16;4942016;29;20189;-80
2023/10/14 10:18:12;;;;;;;6.97;5.30;;;;;;;16.62;79.85;95257.16;4941776;28;20209;-81
2023/10/14 10:20:41;;;;;;;3.30;1.90;;;;;;;16.55;79.73;95251.06;4935997;29;20184;-80
2023/10/14 10:23:07;;;;;;;5.07;4.03;;;;;;;16.38;79.82;95255.78;4931374;29;20229;-80
2023/10/14 10:25:39;;;;;;;7.72;5.85;;;;;;;16.52;79.47;95256.69;4925523;29;20194;-80
2023/10/14 10:28:23;;;;;;;5.38;3.95;;;;;;;16.26;80.34;95267.78;4944194;28;20217;-79
2023/10/14 10:30:48;;;;;;;7.82;6.10;;;;;;;16.13;81.52;95259.81;4939169;29;20200;-79
2023/10/14 10:33:14;;;;;;;4.55;4.07;;;;;;;15.86;81.87;95256.13;4915484;29;20186;-80
2023/10/14 10:35:58;;;;;;;7.25;5.70;;;;;;;15.82;82.40;95260.13;4961477;28;20184;-79
2023/10/14 10:38:26;;;;;;;2.13;1.90;;;;;;;15.93;81.98;95267.50;4963446;28;20182;-79
2023/10/14 10:41:18;;;;;;;2.00;1.80;;;;;;;15.82;81.84;95260.94;4940888;29;20226;-78
2023/10/14 10:43:46;;;;;;;2.83;2.03;;;;;;;15.80;81.75;95262.09;4934773;29;20213;-80
2023/10/14 10:46:37;;;;;;;1.50;0.90;;;;;;;15.53;80.64;95248.72;4936154;29;20201;-80
2023/10/14 10:49:06;;;;;;;0.80;0.80;;;;;;;15.33;80.74;95249.50;4960476;28;20249;-81
2023/10/14 10:51:32;;;;;;;1.10;1.00;;;;;;;15.49;81.45;95255.34;4940640;29;20192;-80
2023/10/14 10:53:59;;;;;;;2.17;0.70;;;;;;;15.35;79.48;95253.56;4937788;29;20190;-80
2023/10/14 10:56:28;;;;;;;1.38;0.50;;;;;;;15.00;79.43;95257.75;4931967;29;20212;-81
2023/10/14 10:58:54;;;;;;;0.70;0.55;;;;;;;14.99;82.30;95258.75;4943981;29;20189;-80
2023/10/14 11:01:20;;;;;;;0.87;0.87;;;;;;;15.02;82.39;95255.78;4925178;29;20194;-79
2023/10/14 11:03:45;;;;;;;1.30;1.00;;;;;;;15.11;81.86;95264.34;4939238;29;20212;-81
2023/10/14 11:06:13;;;;;;;0.75;0.70;;;;;;;15.02;82.07;95253.97;4924755;29;20243;-82
2023/10/14 11:08:39;;;;;;;0.77;0.50;;;;;;;15.03;81.41;95249.56;4917703;29;20653;-81
2023/10/14 11:11:06;;;;;;;2.42;0.60;;;;;;;14.94;82.38;95250.66;4936321;29;20204;-82
2023/10/14 11:13:31;;;;;;;0.93;0.60;;;;;;;14.84;82.98;95257.94;4958599;28;20598;-82
2023/10/14 11:15:57;;;;;;;0.50;0.50;;;;;;;14.85;83.63;95262.19;4932096;29;20186;-82
2023/10/14 11:18:24;;;;;;;0.70;0.70;;;;;;;15.05;83.11;95257.22;4918664;29;20597;-82
2023/10/14 11:20:50;;;;;;;2.60;1.60;;;;;;;15.13;83.38;95246.66;4915878;29;20190;-82
2023/10/14 11:23:17;;;;;;;2.05;1.85;;;;;;;14.93;84.66;95251.63;4933096;29;20711;-81
2023/10/14 11:25:46;;;;;;;4.20;3.78;;;;;;;14.93;85.75;95260.31;4939602;29;20189;-80
2023/10/14 11:28:14;;;;;;;3.83;1.93;;;;;;;15.37;84.56;95259.44;4939405;28;20224;-83
2023/10/14 11:30:41;;;;;;;1.30;1.23;;;;;;;15.66;83.94;95268.22;4929204;29;20182;-80
2023/10/14 11:33:09;;;;;;;4.00;3.70;;;;;;;15.99;83.38;95269.38;4917186;29;20181;-83
2023/10/14 11:35:36;;;;;;;4.47;4.07;;;;;;;16.09;82.19;95267.25;4937846;29;20272;-82
2023/10/14 11:38:06;;;;;;;3.10;2.80;;;;;;;16.01;81.43;95258.69;4944056;29;20221;-80
2023/10/14 11:40:34;;;;;;;1.15;1.05;;;;;;;15.87;82.38;95263.00;4933836;29;20193;-81
2023/10/14 11:43:00;;;;;;;1.05;0.80;;;;;;;15.98;82.18;95272.16;4924462;29;20596;-81
2023/10/14 11:45:25;;;;;;;7.65;6.95;;;;;;;15.54;82.20;95263.44;4935869;29;20189;-80
2023/10/14 11:47:54;;;;;;;6.97;5.78;;;;;;;15.61;81.75;95268.75;4933937;29;20217;-78
2023/10/14 11:50:20;;;;;;;3.25;2.95;;;;;;;15.52;82.07;95257.56;4927099;29;20244;-82
2023/10/14 11:52:52;;;;;;;4.88;4.45;;;;;;;15.63;80.93;95258.91;4926702;29;20189;-83
2023/10/14 11:55:19;;;;;;;2.70;2.45;;;;;;;15.59;81.21;95255.03;4937285;29;20193;-80
2023/10/14 11:57:46;;;;;;;4.45;3.95;;;;;;;15.56;80.15;95251.00;4933779;29;20202;-82
2023/10/14 12:00:16;;;;;;;5.85;5.05;;;;;;;15.66;79.75;95260.38;4938374;29;20192;-81
2023/10/14 12:02:45;;;;;;;6.13;4.60;;;;;;;15.35;80.52;95253.56;4940707;28;20212;-83